Terminal Aerodrome Forecast
Issued by NWS

Home | Current Version | Previous Version | Graphics & Text | Print | Product List | Glossary On
Versions: 1 2 3 4 5 6 7 8 9 10 11 12 13 14 15 16 17
000
FTUS43 KGRB 161731
TAFATW
TAF
KATW 161731Z 1618/1718 18011KT P6SM SCT250
     FM162300 18008KT P6SM SCT200
     FM171000 20007KT P6SM -TSRA BKN070CB
     FM171400 26008KT P6SM -SHRA BKN027
     FM171500 28009KT P6SM BKN080=

USA.gov is the U.S. government's official web portal to all federal, state and local government web resources and services.